Time;durP1;ratioP1;P1;durP2;ratioP2;P2;SDS_P1;SDS_P2;PMS_P1;PMS_P2;Temp;Humidity;BMP_temperature;BMP_pressure;BME280_temperature;BME280_humidity;BME280_pressure;Samples;Min_cycle;Max_cycle;Signal;HPM_P1;HPM_P2
2023/02/18 00:00:26;;;;;;;7.57;4.72;;;20.60;81.50;;;;;;5081912;28;20187;-52
2023/02/18 00:02:54;;;;;;;7.13;4.43;;;20.60;81.50;;;;;;5087442;28;20194;-55
2023/02/18 00:05:21;;;;;;;7.85;4.72;;;20.60;81.60;;;;;;5076263;28;20238;-53
2023/02/18 00:07:50;;;;;;;8.73;4.65;;;20.60;81.50;;;;;;5090182;28;21001;-56
2023/02/18 00:10:17;;;;;;;8.52;4.18;;;20.60;81.50;;;;;;5076213;28;20202;-51
2023/02/18 00:12:43;;;;;;;8.55;5.40;;;20.60;81.50;;;;;;5084340;28;20195;-54
2023/02/18 00:15:10;;;;;;;5.28;4.30;;;20.60;81.50;;;;;;5083710;28;20190;-54
2023/02/18 00:17:37;;;;;;;5.95;4.43;;;20.60;81.50;;;;;;5080145;28;20226;-49
2023/02/18 00:20:05;;;;;;;4.72;4.00;;;20.60;81.60;;;;;;5078671;28;20195;-53
2023/02/18 00:22:31;;;;;;;7.20;4.65;;;20.60;81.50;;;;;;5091162;28;20228;-53
2023/02/18 00:24:59;;;;;;;7.50;4.53;;;20.60;81.80;;;;;;5074515;28;20206;-52
2023/02/18 00:27:26;;;;;;;5.43;4.90;;;20.60;82.00;;;;;;5089383;28;20190;-54
2023/02/18 00:29:53;;;;;;;8.65;5.07;;;20.60;82.10;;;;;;5082932;28;20193;-52
2023/02/18 00:32:20;;;;;;;7.22;4.72;;;20.60;82.30;;;;;;5085829;28;20193;-51
2023/02/18 00:34:47;;;;;;;6.30;4.78;;;20.60;82.60;;;;;;5076430;28;20194;-52
2023/02/18 00:37:13;;;;;;;8.10;5.50;;;20.60;82.80;;;;;;5081902;28;20220;-56
2023/02/18 00:39:40;;;;;;;8.40;4.75;;;20.60;83.00;;;;;;5086368;28;20573;-59
2023/02/18 00:42:08;;;;;;;6.15;3.67;;;20.60;83.10;;;;;;5083339;28;20205;-50
2023/02/18 00:44:35;;;;;;;8.63;4.85;;;20.50;83.20;;;;;;5079292;28;20189;-50
2023/02/18 00:47:01;;;;;;;6.55;4.43;;;20.50;83.20;;;;;;5077295;28;20206;-53
2023/02/18 00:49:28;;;;;;;7.70;5.60;;;20.50;83.50;;;;;;5087249;28;20197;-52
2023/02/18 00:51:55;;;;;;;7.93;4.47;;;20.50;83.60;;;;;;5081353;28;20632;-52
2023/02/18 00:54:22;;;;;;;6.15;4.43;;;20.50;83.70;;;;;;5080483;28;20213;-52
2023/02/18 00:56:49;;;;;;;8.20;4.82;;;20.40;83.70;;;;;;5074406;28;20197;-53
2023/02/18 00:59:17;;;;;;;7.15;4.35;;;20.40;83.70;;;;;;5088154;28;20195;-52
2023/02/18 01:01:43;;;;;;;6.85;4.30;;;20.40;83.90;;;;;;5078926;28;20212;-52
2023/02/18 01:04:10;;;;;;;7.68;4.45;;;20.40;83.90;;;;;;5081979;28;20202;-53
2023/02/18 01:06:37;;;;;;;4.63;3.50;;;20.40;83.90;;;;;;5093773;28;20202;-53
2023/02/18 01:09:04;;;;;;;6.20;4.20;;;20.40;83.90;;;;;;5083694;28;20207;-55
2023/02/18 01:11:31;;;;;;;5.28;3.35;;;20.50;84.00;;;;;;5080167;28;20203;-55
2023/02/18 01:13:58;;;;;;;11.35;4.78;;;20.50;84.00;;;;;;5079581;28;20197;-53
2023/02/18 01:16:26;;;;;;;4.95;4.07;;;20.50;84.00;;;;;;5081461;28;20205;-57
2023/02/18 01:18:53;;;;;;;4.90;3.95;;;20.40;83.90;;;;;;5080141;28;20697;-50
2023/02/18 01:21:20;;;;;;;7.18;4.50;;;20.40;83.90;;;;;;5078945;28;20221;-53
2023/02/18 01:23:46;;;;;;;7.18;4.13;;;20.40;83.90;;;;;;5075805;28;20628;-52
2023/02/18 01:26:13;;;;;;;7.00;4.32;;;20.40;84.10;;;;;;5081728;28;20191;-51
2023/02/18 01:28:40;;;;;;;4.07;3.40;;;20.40;84.00;;;;;;5083986;28;20681;-56
2023/02/18 01:31:09;;;;;;;4.28;3.83;;;20.40;83.90;;;;;;5088197;28;20194;-50
2023/02/18 01:33:37;;;;;;;5.85;4.40;;;20.40;84.00;;;;;;5080785;28;20198;-49
2023/02/18 01:36:05;;;;;;;5.68;4.43;;;20.40;84.00;;;;;;5078260;28;20190;-55
2023/02/18 01:38:32;;;;;;;4.70;3.40;;;20.40;83.90;;;;;;5088127;28;20229;-56
2023/02/18 01:40:59;;;;;;;8.75;4.70;;;20.40;83.90;;;;;;5096659;28;20190;-52
2023/02/18 01:43:25;;;;;;;8.00;4.00;;;20.40;84.00;;;;;;5079846;28;20195;-53
2023/02/18 01:46:12;;;;;;;7.43;4.45;;;20.40;84.00;;;;;;5079678;28;20191;-55
2023/02/18 01:48:43;;;;;;;9.05;3.60;;;20.30;83.90;;;;;;5083174;28;20206;-56
2023/02/18 01:51:16;;;;;;;7.68;4.05;;;20.30;83.90;;;;;;5074210;28;20658;-52
2023/02/18 01:53:49;;;;;;;4.93;3.55;;;20.30;84.70;;;;;;5073562;28;20235;-53
2023/02/18 01:56:24;;;;;;;8.13;4.82;;;20.30;83.80;;;;;;5096459;28;20190;-53
2023/02/18 01:58:53;;;;;;;5.43;4.10;;;20.30;83.90;;;;;;5083190;28;20232;-54
2023/02/18 02:01:20;;;;;;;5.50;4.20;;;20.30;83.90;;;;;;5081645;28;20194;-53
2023/02/18 02:03:48;;;;;;;4.80;3.67;;;20.30;83.90;;;;;;5078402;28;20202;-51
2023/02/18 02:06:18;;;;;;;6.65;4.60;;;20.30;83.90;;;;;;5085835;28;20198;-52
2023/02/18 02:08:47;;;;;;;7.63;4.25;;;20.20;83.70;;;;;;5077560;28;20202;-50
2023/02/18 02:11:25;;;;;;;5.10;3.95;;;20.20;83.70;;;;;;5080784;28;20194;-49
2023/02/18 02:14:19;;;;;;;5.95;3.53;;;20.20;83.70;;;;;;5090284;28;20221;-49
2023/02/18 02:16:55;;;;;;;7.35;3.95;;;20.20;83.70;;;;;;5083420;28;20213;-49
2023/02/18 02:19:54;;;;;;;4.10;3.25;;;20.20;83.70;;;;;;5085551;28;20217;-49
2023/02/18 02:22:40;;;;;;;5.60;4.25;;;20.20;83.60;;;;;;5081105;28;20617;-52
2023/02/18 02:25:28;;;;;;;4.75;3.30;;;20.20;83.50;;;;;;5074938;28;20195;-53
2023/02/18 02:28:27;;;;;;;4.97;3.70;;;20.20;83.50;;;;;;5079678;28;20213;-54
2023/02/18 02:31:35;;;;;;;5.20;3.42;;;20.20;83.40;;;;;;5091685;28;20190;-51
2023/02/18 02:34:56;;;;;;;4.90;3.20;;;20.20;83.40;;;;;;5067153;28;20194;-50
2023/02/18 02:37:32;;;;;;;4.53;3.80;;;20.20;83.20;;;;;;5077617;28;20209;-52
2023/02/18 02:40:10;;;;;;;3.17;2.70;;;20.20;83.20;;;;;;5087112;28;20200;-53
2023/02/18 02:42:46;;;;;;;4.68;3.60;;;20.20;83.10;;;;;;5084692;28;20213;-52
2023/02/18 02:45:21;;;;;;;4.25;3.85;;;20.20;83.10;;;;;;5077808;28;20225;-53
2023/02/18 02:47:54;;;;;;;7.30;4.25;;;20.10;82.90;;;;;;5076377;28;20194;-50
2023/02/18 02:50:27;;;;;;;4.22;3.47;;;20.10;83.70;;;;;;5082075;28;20199;-54
2023/02/18 02:52:59;;;;;;;5.53;4.07;;;20.10;82.80;;;;;;5086939;28;20203;-49
2023/02/18 02:55:26;;;;;;;4.55;3.65;;;20.10;82.80;;;;;;5083768;28;20658;-49
2023/02/18 02:57:54;;;;;;;4.13;3.47;;;20.10;82.80;;;;;;5088499;28;21001;-48
2023/02/18 03:00:29;;;;;;;6.47;4.18;;;20.10;82.80;;;;;;5086791;28;20582;-50
2023/02/18 03:03:22;;;;;;;4.28;3.70;;;20.10;82.80;;;;;;5083267;28;20186;-53
2023/02/18 03:06:09;;;;;;;4.53;3.63;;;20.10;82.80;;;;;;5088629;28;20202;-51
2023/02/18 03:08:47;;;;;;;4.25;3.30;;;20.10;82.80;;;;;;5088074;28;20566;-52
2023/02/18 03:11:16;;;;;;;4.60;3.20;;;20.10;82.80;;;;;;5086485;28;20200;-54
2023/02/18 03:13:54;;;;;;;5.47;4.13;;;20.10;82.70;;;;;;5085696;28;20772;-50
2023/02/18 03:16:29;;;;;;;4.70;3.22;;;20.10;82.80;;;;;;5083270;28;20650;-51
2023/02/18 03:19:03;;;;;;;3.53;3.22;;;20.00;82.60;;;;;;5084776;28;20220;-49
2023/02/18 03:21:33;;;;;;;5.60;3.70;;;20.00;82.70;;;;;;5083901;28;20241;-50
2023/02/18 03:24:06;;;;;;;5.18;3.55;;;20.00;82.60;;;;;;5084360;28;20209;-53
2023/02/18 03:26:35;;;;;;;5.20;3.55;;;20.00;82.60;;;;;;5077873;28;20205;-49
2023/02/18 03:29:06;;;;;;;5.32;3.10;;;20.00;82.50;;;;;;5086056;28;20198;-49
2023/02/18 03:31:37;;;;;;;4.70;3.67;;;20.00;82.50;;;;;;5090319;28;20616;-49
2023/02/18 03:34:07;;;;;;;5.18;3.25;;;20.10;82.60;;;;;;5084361;28;20198;-52
2023/02/18 03:36:35;;;;;;;5.25;3.97;;;20.00;82.50;;;;;;5081213;28;20302;-49
2023/02/18 03:39:07;;;;;;;7.60;3.83;;;20.00;82.30;;;;;;5069548;28;20620;-51
2023/02/18 03:41:34;;;;;;;8.23;3.67;;;20.00;82.30;;;;;;5088513;28;20307;-51
2023/02/18 03:44:03;;;;;;;6.55;4.13;;;20.00;82.20;;;;;;5079078;28;20581;-55
2023/02/18 03:46:31;;;;;;;6.75;4.55;;;20.00;82.20;;;;;;5076198;28;20217;-52
2023/02/18 03:48:58;;;;;;;3.58;3.28;;;20.00;82.20;;;;;;5082697;28;20581;-56
2023/02/18 03:51:25;;;;;;;4.47;3.30;;;20.00;82.10;;;;;;5091125;28;20279;-51
2023/02/18 03:53:52;;;;;;;3.90;3.35;;;20.00;82.00;;;;;;5079470;28;20202;-54
2023/02/18 03:56:20;;;;;;;5.43;3.50;;;20.00;82.00;;;;;;5095201;28;20197;-54
2023/02/18 03:58:47;;;;;;;4.03;3.53;;;20.00;82.00;;;;;;5079989;28;20218;-49
2023/02/18 04:01:14;;;;;;;3.47;2.88;;;20.00;82.00;;;;;;5084375;28;20198;-54
2023/02/18 04:03:41;;;;;;;5.00;3.67;;;20.00;82.00;;;;;;5077010;28;20658;-56
2023/02/18 04:06:08;;;;;;;3.95;3.28;;;20.00;82.00;;;;;;5088757;28;20194;-55
2023/02/18 04:08:35;;;;;;;4.65;3.65;;;20.00;82.00;;;;;;5089026;28;20194;-51
2023/02/18 04:11:01;;;;;;;4.65;3.80;;;20.00;82.00;;;;;;5085027;28;20198;-50
2023/02/18 04:13:29;;;;;;;3.03;2.72;;;19.90;81.80;;;;;;5085684;28;20676;-53
2023/02/18 04:15:57;;;;;;;3.63;3.17;;;19.90;81.80;;;;;;5088774;28;20201;-49
2023/02/18 04:18:23;;;;;;;5.60;4.43;;;19.90;81.80;;;;;;5080741;28;20306;-52
2023/02/18 04:20:50;;;;;;;4.13;3.70;;;19.90;81.80;;;;;;5084425;28;20197;-54
2023/02/18 04:23:17;;;;;;;5.13;3.55;;;19.90;81.80;;;;;;5081740;28;20597;-49
2023/02/18 04:25:44;;;;;;;9.70;3.80;;;19.90;81.80;;;;;;5084743;28;20209;-55
2023/02/18 04:28:12;;;;;;;3.55;3.03;;;19.90;81.80;;;;;;5087008;28;20212;-55
2023/02/18 04:30:40;;;;;;;3.95;3.38;;;19.90;81.70;;;;;;5077628;28;20565;-52
2023/02/18 04:33:07;;;;;;;3.58;3.13;;;19.90;81.70;;;;;;5080378;28;20252;-51
2023/02/18 04:35:35;;;;;;;4.63;4.22;;;19.90;81.80;;;;;;5084581;28;20210;-54
2023/02/18 04:38:02;;;;;;;4.80;3.42;;;19.90;81.70;;;;;;5089331;28;20193;-55
2023/02/18 04:40:29;;;;;;;3.40;3.10;;;19.90;81.80;;;;;;5077545;28;20195;-50
2023/02/18 04:42:57;;;;;;;6.00;4.03;;;19.90;81.70;;;;;;5086309;28;20544;-55
2023/02/18 04:45:23;;;;;;;4.15;3.80;;;19.90;81.70;;;;;;5076070;28;20203;-50
2023/02/18 04:47:51;;;;;;;5.05;3.70;;;19.90;81.80;;;;;;5084790;28;20231;-52
2023/02/18 04:50:19;;;;;;;3.65;3.35;;;19.90;81.70;;;;;;5071721;28;20672;-54
2023/02/18 04:52:46;;;;;;;5.15;3.25;;;19.90;81.70;;;;;;5085525;28;20190;-55
2023/02/18 04:55:13;;;;;;;2.92;2.63;;;19.90;81.70;;;;;;5077748;28;20194;-53
2023/02/18 04:57:39;;;;;;;4.40;3.53;;;19.90;81.70;;;;;;5085197;28;20218;-52
2023/02/18 05:00:09;;;;;;;3.55;3.25;;;19.90;81.70;;;;;;5076033;28;20594;-54
2023/02/18 05:02:35;;;;;;;3.80;3.15;;;19.90;81.50;;;;;;5085002;28;20199;-49
2023/02/18 05:05:03;;;;;;;3.28;2.65;;;19.90;81.50;;;;;;5083351;28;20201;-54
2023/02/18 05:07:30;;;;;;;2.78;2.58;;;19.90;81.40;;;;;;5083649;28;20199;-52
2023/02/18 05:09:57;;;;;;;3.40;3.10;;;19.90;81.40;;;;;;5070852;28;20199;-53
2023/02/18 05:12:23;;;;;;;6.07;3.13;;;19.90;81.50;;;;;;5089413;28;20244;-49
2023/02/18 05:14:50;;;;;;;3.72;3.42;;;19.80;81.30;;;;;;5081970;28;20194;-51
2023/02/18 05:17:17;;;;;;;4.05;3.65;;;19.80;81.20;;;;;;5088716;28;20190;-51
2023/02/18 05:19:45;;;;;;;4.07;3.10;;;19.80;81.20;;;;;;5073855;28;20263;-52
2023/02/18 05:22:13;;;;;;;3.20;2.90;;;19.80;81.20;;;;;;5085118;28;20237;-51
2023/02/18 05:24:39;;;;;;;3.85;3.05;;;19.80;82.00;;;;;;5080006;28;20191;-50
2023/02/18 05:27:06;;;;;;;3.45;2.80;;;19.80;81.10;;;;;;5093319;28;20213;-54
2023/02/18 05:29:33;;;;;;;3.33;3.03;;;19.80;81.10;;;;;;5083351;28;20209;-54
2023/02/18 05:31:59;;;;;;;4.32;3.10;;;19.80;81.10;;;;;;5088515;28;20198;-50
2023/02/18 05:34:26;;;;;;;2.63;2.42;;;19.80;81.10;;;;;;5080446;28;20205;-52
2023/02/18 05:36:53;;;;;;;4.10;3.40;;;19.80;81.10;;;;;;5088820;28;20202;-51
2023/02/18 05:39:21;;;;;;;3.85;2.90;;;19.80;81.10;;;;;;5073793;28;20215;-54
2023/02/18 05:41:48;;;;;;;4.03;2.63;;;19.80;81.10;;;;;;5083836;28;20190;-50
2023/02/18 05:44:30;;;;;;;4.30;3.03;;;19.80;81.10;;;;;;5084897;28;20209;-52
2023/02/18 05:46:57;;;;;;;3.50;3.20;;;19.80;81.10;;;;;;5086557;28;20705;-51
2023/02/18 05:49:24;;;;;;;3.97;3.00;;;19.70;80.90;;;;;;5082573;28;20236;-50
2023/02/18 05:51:50;;;;;;;3.28;2.97;;;19.70;81.00;;;;;;5084711;28;20206;-53
2023/02/18 05:54:17;;;;;;;3.30;2.90;;;19.70;80.90;;;;;;5079550;28;20198;-54
2023/02/18 05:56:45;;;;;;;3.50;3.08;;;19.70;80.90;;;;;;5094554;28;20202;-48
2023/02/18 05:59:12;;;;;;;3.30;3.03;;;19.70;80.90;;;;;;5082881;28;20229;-52
2023/02/18 06:01:39;;;;;;;4.55;2.90;;;19.70;80.90;;;;;;5088051;28;20190;-54
2023/02/18 06:04:06;;;;;;;3.13;2.83;;;19.70;80.90;;;;;;5084904;28;20193;-49
2023/02/18 06:06:33;;;;;;;5.32;3.33;;;19.70;80.90;;;;;;5093382;28;20201;-51
2023/02/18 06:09:00;;;;;;;3.47;3.17;;;19.70;80.90;;;;;;5086386;28;20772;-50
2023/02/18 06:11:26;;;;;;;3.05;2.30;;;19.70;80.80;;;;;;5085476;28;20466;-54
2023/02/18 06:13:54;;;;;;;3.53;3.22;;;19.70;80.80;;;;;;5085592;28;20186;-50
2023/02/18 06:16:21;;;;;;;3.80;3.20;;;19.70;80.90;;;;;;5090458;28;20194;-52
2023/02/18 06:18:48;;;;;;;3.80;3.08;;;19.70;80.90;;;;;;5080196;28;20223;-52
2023/02/18 06:21:15;;;;;;;3.08;2.85;;;19.70;80.80;;;;;;5085700;28;20202;-53
2023/02/18 06:23:41;;;;;;;3.30;3.00;;;19.70;80.80;;;;;;5082845;28;20214;-53
2023/02/18 06:26:08;;;;;;;5.45;3.88;;;19.70;80.80;;;;;;5084346;28;20654;-51
2023/02/18 06:28:35;;;;;;;3.60;3.28;;;19.80;80.90;;;;;;5090520;28;20210;-55
2023/02/18 06:31:04;;;;;;;4.00;3.60;;;19.80;80.80;;;;;;5090531;28;20202;-50
2023/02/18 06:33:30;;;;;;;3.58;3.28;;;19.80;80.80;;;;;;5081509;28;20215;-52
2023/02/18 06:35:58;;;;;;;3.15;2.85;;;19.80;80.90;;;;;;5091990;28;20194;-53
2023/02/18 06:38:26;;;;;;;6.35;2.45;;;19.80;80.80;;;;;;5089486;28;20198;-52
2023/02/18 06:40:53;;;;;;;3.15;2.58;;;19.80;80.90;;;;;;5077956;28;20219;-49
2023/02/18 06:43:20;;;;;;;4.03;2.85;;;19.90;80.90;;;;;;5091035;28;20620;-51
2023/02/18 06:45:47;;;;;;;4.90;2.85;;;19.90;80.90;;;;;;5077689;28;20585;-53
2023/02/18 06:48:16;;;;;;;3.00;2.70;;;19.90;80.90;;;;;;5085310;28;20198;-54
2023/02/18 06:50:44;;;;;;;2.85;2.40;;;19.90;81.00;;;;;;5084105;28;20211;-59
2023/02/18 06:53:10;;;;;;;2.47;2.28;;;19.90;81.00;;;;;;5090908;28;20585;-52
2023/02/18 06:55:38;;;;;;;4.38;3.08;;;19.90;81.10;;;;;;5083696;28;20193;-52
2023/02/18 06:58:05;;;;;;;3.58;3.28;;;19.80;81.20;;;;;;5090870;28;20205;-52
2023/02/18 07:00:32;;;;;;;3.78;2.95;;;19.80;81.20;;;;;;5088522;28;20225;-53
2023/02/18 07:02:59;;;;;;;4.72;3.08;;;19.80;82.10;;;;;;5082878;28;20190;-55
2023/02/18 07:05:27;;;;;;;3.17;2.63;;;19.80;81.60;;;;;;5086699;28;20669;-55
2023/02/18 07:07:54;;;;;;;3.70;3.25;;;19.80;81.70;;;;;;5088119;28;20577;-56
2023/02/18 07:10:21;;;;;;;3.75;2.97;;;19.80;81.70;;;;;;5084025;28;20198;-54
2023/02/18 07:12:47;;;;;;;3.15;2.80;;;19.80;81.70;;;;;;5090005;28;20201;-53
2023/02/18 07:15:15;;;;;;;3.00;2.67;;;19.80;81.70;;;;;;5085741;28;20195;-55
2023/02/18 07:17:41;;;;;;;3.25;2.95;;;19.80;81.70;;;;;;5083985;28;20272;-55
2023/02/18 07:20:09;;;;;;;2.80;2.40;;;19.80;81.70;;;;;;5090967;28;20218;-51
2023/02/18 07:22:37;;;;;;;2.85;2.58;;;19.80;82.10;;;;;;5084238;28;20217;-56
2023/02/18 07:25:07;;;;;;;3.92;2.75;;;19.80;82.20;;;;;;5086703;28;20195;-53
2023/02/18 07:27:34;;;;;;;3.13;2.22;;;19.80;82.10;;;;;;5087071;28;20200;-54
2023/02/18 07:30:00;;;;;;;4.43;2.97;;;19.90;82.30;;;;;;5083491;28;21080;-52
2023/02/18 07:32:27;;;;;;;3.33;3.00;;;19.90;82.60;;;;;;5092457;28;20604;-52
2023/02/18 07:34:54;;;;;;;5.07;2.70;;;19.90;83.00;;;;;;5075904;28;20198;-50
2023/02/18 07:37:21;;;;;;;4.20;2.15;;;19.90;82.60;;;;;;5083424;28;20190;-49
2023/02/18 07:39:49;;;;;;;3.47;2.92;;;20.00;83.00;;;;;;5078910;28;20621;-54
2023/02/18 07:42:16;;;;;;;4.18;2.83;;;20.00;83.00;;;;;;5086026;28;20199;-53
2023/02/18 07:44:43;;;;;;;3.15;2.00;;;20.00;83.10;;;;;;5079372;28;20205;-54
2023/02/18 07:47:13;;;;;;;2.33;2.03;;;20.00;83.00;;;;;;5080154;28;20213;-52
2023/02/18 07:49:39;;;;;;;3.50;3.05;;;20.00;83.10;;;;;;5087650;28;20194;-49
2023/02/18 07:52:06;;;;;;;4.72;2.65;;;20.00;83.20;;;;;;5077723;28;20202;-54
2023/02/18 07:54:33;;;;;;;2.55;2.15;;;20.00;83.40;;;;;;5084866;28;20201;-53
2023/02/18 07:57:01;;;;;;;3.33;2.42;;;20.00;84.40;;;;;;5077142;28;20709;-53
2023/02/18 07:59:28;;;;;;;3.22;2.40;;;20.10;83.90;;;;;;5075403;28;20222;-57
2023/02/18 08:01:54;;;;;;;4.03;2.22;;;20.10;83.70;;;;;;5096726;28;20209;-50
2023/02/18 08:04:21;;;;;;;4.45;2.45;;;20.10;83.50;;;;;;5107508;28;20201;-53
2023/02/18 08:06:49;;;;;;;3.20;2.13;;;20.10;83.40;;;;;;5099120;28;20230;-55
2023/02/18 08:09:16;;;;;;;2.30;2.10;;;20.10;83.70;;;;;;5083714;28;20194;-55
2023/02/18 08:11:43;;;;;;;4.82;2.42;;;20.10;83.50;;;;;;5083395;28;20194;-55
2023/02/18 08:14:11;;;;;;;2.47;2.28;;;20.10;83.50;;;;;;5081905;28;20200;-55
2023/02/18 08:16:38;;;;;;;3.08;2.00;;;20.10;83.70;;;;;;5080436;28;20196;-55
2023/02/18 08:19:05;;;;;;;5.40;2.20;;;20.10;84.00;;;;;;5079981;28;20206;-54
2023/02/18 08:21:32;;;;;;;3.40;2.10;;;20.10;84.20;;;;;;5088150;28;20698;-56
2023/02/18 08:23:59;;;;;;;2.78;2.10;;;20.10;84.30;;;;;;5087545;28;20198;-54
2023/02/18 08:26:26;;;;;;;3.45;2.30;;;20.10;84.30;;;;;;5079965;28;20684;-53
2023/02/18 08:28:53;;;;;;;7.65;2.75;;;20.10;84.40;;;;;;5088297;28;20648;-53
2023/02/18 08:31:23;;;;;;;6.35;2.00;;;20.10;84.40;;;;;;5081718;28;20199;-54
2023/02/18 08:33:50;;;;;;;7.65;2.50;;;20.10;84.40;;;;;;5076856;28;20237;-56
2023/02/18 08:36:17;;;;;;;3.42;2.53;;;20.20;84.30;;;;;;5071734;28;20201;-52
2023/02/18 08:38:44;;;;;;;4.38;2.95;;;20.10;84.40;;;;;;5071119;28;20195;-55
2023/02/18 08:41:13;;;;;;;4.10;2.70;;;20.00;84.90;;;;;;5072651;28;20217;-53
2023/02/18 08:43:40;;;;;;;2.63;2.42;;;20.00;85.00;;;;;;5072457;28;20236;-54
2023/02/18 08:46:06;;;;;;;2.50;2.30;;;19.90;84.00;;;;;;5088654;28;20193;-53
2023/02/18 08:48:34;;;;;;;10.23;2.42;;;20.00;84.40;;;;;;5089585;28;20713;-57
2023/02/18 08:51:11;;;;;;;2.45;2.25;;;20.00;84.40;;;;;;5088694;28;20202;-54
2023/02/18 08:53:38;;;;;;;3.10;2.80;;;20.10;84.20;;;;;;5090598;28;20197;-57
2023/02/18 08:56:06;;;;;;;4.35;2.80;;;20.10;84.00;;;;;;5077992;28;20663;-55
2023/02/18 08:58:35;;;;;;;2.53;2.33;;;20.10;83.90;;;;;;5086432;28;20281;-53
2023/02/18 09:01:04;;;;;;;2.40;2.20;;;20.10;83.80;;;;;;5089551;28;20252;-51
2023/02/18 09:03:31;;;;;;;2.70;2.10;;;20.20;83.90;;;;;;5083970;28;20201;-52
2023/02/18 09:05:59;;;;;;;2.63;2.42;;;20.20;83.70;;;;;;5083238;28;20194;-50
2023/02/18 09:08:26;;;;;;;2.72;2.35;;;20.20;83.70;;;;;;5083294;28;20190;-50
2023/02/18 09:10:55;;;;;;;2.85;2.33;;;20.20;83.60;;;;;;5087225;28;20657;-51
2023/02/18 09:13:22;;;;;;;2.85;1.98;;;20.20;83.70;;;;;;5080349;28;20689;-50
2023/02/18 09:15:56;;;;;;;1.95;1.80;;;20.20;83.60;;;;;;5084023;28;20194;-55
2023/02/18 09:18:23;;;;;;;2.72;2.35;;;20.20;83.60;;;;;;5097729;28;20224;-56
2023/02/18 09:20:50;;;;;;;2.42;1.85;;;20.30;83.70;;;;;;5081672;28;20214;-53
2023/02/18 09:23:20;;;;;;;2.28;2.10;;;20.30;83.70;;;;;;5093634;28;20313;-53
2023/02/18 09:25:46;;;;;;;2.47;1.90;;;20.30;83.70;;;;;;5081042;28;20202;-50
2023/02/18 09:28:13;;;;;;;3.03;1.80;;;20.30;83.70;;;;;;5090906;28;20680;-56
2023/02/18 09:30:40;;;;;;;2.25;2.05;;;20.30;83.70;;;;;;5092691;28;20205;-53
2023/02/18 09:33:07;;;;;;;4.90;2.20;;;20.30;83.70;;;;;;5085549;28;20209;-53
2023/02/18 09:35:33;;;;;;;3.33;2.00;;;20.30;83.70;;;;;;5090888;28;20206;-50
2023/02/18 09:38:00;;;;;;;3.90;2.65;;;20.30;83.70;;;;;;5092488;28;20669;-53
2023/02/18 09:40:32;;;;;;;2.47;1.60;;;20.30;83.80;;;;;;5086724;28;20222;-56
2023/02/18 09:43:00;;;;;;;2.00;1.80;;;20.30;83.70;;;;;;5088483;28;20277;-52
2023/02/18 09:45:28;;;;;;;2.13;2.03;;;20.30;83.70;;;;;;5085435;28;20607;-54
2023/02/18 09:47:55;;;;;;;3.55;1.85;;;20.30;83.70;;;;;;5082960;28;20206;-53
2023/02/18 09:50:25;;;;;;;2.10;1.90;;;20.30;83.70;;;;;;5091155;28;20210;-49
2023/02/18 09:52:52;;;;;;;1.63;1.50;;;20.30;83.60;;;;;;5092150;28;20197;-50
2023/02/18 09:55:22;;;;;;;1.80;1.70;;;20.30;83.50;;;;;;5082269;28;20230;-50
2023/02/18 09:57:53;;;;;;;2.30;2.13;;;20.40;83.50;;;;;;5091778;28;20209;-52
2023/02/18 10:00:24;;;;;;;1.75;1.65;;;20.40;83.50;;;;;;5089931;28;20213;-49
2023/02/18 10:02:55;;;;;;;1.80;1.70;;;20.40;83.50;;;;;;5082854;28;20199;-53
2023/02/18 10:05:24;;;;;;;2.00;1.73;;;20.40;83.40;;;;;;5096035;28;20724;-55
2023/02/18 10:07:54;;;;;;;1.98;1.75;;;20.40;83.30;;;;;;5090554;28;20202;-52
2023/02/18 10:10:27;;;;;;;2.43;1.90;;;20.40;83.20;;;;;;5082108;28;20203;-53
2023/02/18 10:12:56;;;;;;;2.33;1.48;;;20.40;83.20;;;;;;5082234;28;20464;-51
2023/02/18 10:15:27;;;;;;;3.23;1.90;;;20.40;83.10;;;;;;5088417;28;20202;-49
2023/02/18 10:17:56;;;;;;;2.00;1.80;;;20.40;83.10;;;;;;5090578;28;20444;-50
2023/02/18 10:20:25;;;;;;;1.70;1.53;;;20.40;83.10;;;;;;5090023;28;20218;-51
2023/02/18 10:22:54;;;;;;;2.15;1.95;;;20.40;83.00;;;;;;5088860;28;20486;-51
2023/02/18 10:25:24;;;;;;;1.75;1.55;;;20.40;83.00;;;;;;5087776;28;20569;-55
2023/02/18 10:27:52;;;;;;;1.83;1.70;;;20.40;83.00;;;;;;5090357;28;20205;-52
2023/02/18 10:30:24;;;;;;;1.80;1.70;;;20.40;83.00;;;;;;5090109;28;20452;-54
2023/02/18 10:32:55;;;;;;;1.97;1.57;;;20.40;82.90;;;;;;5093047;28;20486;-51
2023/02/18 10:35:28;;;;;;;1.63;1.40;;;20.40;82.80;;;;;;5096205;28;20963;-50
2023/02/18 10:38:04;;;;;;;2.00;1.63;;;20.40;82.80;;;;;;5088501;28;20489;-50
2023/02/18 10:40:39;;;;;;;1.60;1.50;;;20.40;82.70;;;;;;5092112;28;20475;-51
2023/02/18 10:43:16;;;;;;;1.70;1.60;;;20.40;83.50;;;;;;5074038;28;20189;-58
2023/02/18 10:45:47;;;;;;;2.97;2.00;;;20.40;82.80;;;;;;5089676;28;20467;-58
2023/02/18 10:48:37;;;;;;;1.97;1.63;;;20.50;82.80;;;;;;5084535;28;20218;-59
2023/02/18 10:51:15;;;;;;;1.45;1.35;;;20.50;82.60;;;;;;5087575;28;20466;-66
2023/02/18 10:53:45;;;;;;;1.85;1.75;;;20.50;82.70;;;;;;5096597;28;20561;-56
2023/02/18 10:56:33;;;;;;;2.90;1.70;;;20.60;82.80;;;;;;5086970;28;20205;-52
2023/02/18 10:59:06;;;;;;;1.40;1.30;;;20.60;82.80;;;;;;5092199;28;20453;-63
2023/02/18 11:01:34;;;;;;;1.75;1.63;;;20.60;82.80;;;;;;5098066;28;20571;-62
2023/02/18 11:04:15;;;;;;;2.00;1.63;;;20.60;83.60;;;;;;5082394;28;20209;-61
2023/02/18 11:06:45;;;;;;;1.50;1.27;;;20.60;83.00;;;;;;5093241;28;20970;-63
2023/02/18 11:09:31;;;;;;;1.83;1.60;;;20.70;83.80;;;;;;5077816;28;20515;-63
2023/02/18 11:12:07;;;;;;;1.77;1.50;;;20.70;83.10;;;;;;5089235;28;20547;-58
2023/02/18 11:14:38;;;;;;;1.50;1.23;;;20.70;83.10;;;;;;5089579;28;20464;-62
2023/02/18 11:17:15;;;;;;;2.20;1.83;;;20.70;83.20;;;;;;5074875;28;20453;-57
2023/02/18 11:19:41;;;;;;;1.53;1.40;;;20.70;83.20;;;;;;5072792;28;20484;-65
2023/02/18 11:22:19;;;;;;;1.33;1.23;;;20.80;83.30;;;;;;5080257;28;20502;-67
2023/02/18 11:24:49;;;;;;;4.43;1.33;;;20.80;83.40;;;;;;5075484;28;20960;-64
2023/02/18 11:27:23;;;;;;;1.87;1.50;;;20.80;83.40;;;;;;5077916;28;20451;-58
2023/02/18 11:29:53;;;;;;;1.47;1.30;;;20.80;83.40;;;;;;5076174;28;20536;-62
2023/02/18 11:32:22;;;;;;;1.97;1.37;;;20.80;83.50;;;;;;5083251;28;20952;-64
2023/02/18 11:34:50;;;;;;;2.13;1.40;;;20.80;83.60;;;;;;5082135;28;20472;-63
2023/02/18 11:37:20;;;;;;;1.50;1.20;;;20.80;83.50;;;;;;5077272;28;20464;-61
2023/02/18 11:39:50;;;;;;;1.97;1.77;;;20.80;83.50;;;;;;5079505;28;20460;-60
2023/02/18 11:42:19;;;;;;;1.60;1.50;;;20.90;83.70;;;;;;5076942;28;20502;-61
2023/02/18 11:44:52;;;;;;;1.40;1.27;;;20.90;83.70;;;;;;5077071;28;20495;-63
2023/02/18 11:47:24;;;;;;;3.67;1.70;;;20.90;83.70;;;;;;5071007;28;20491;-62
2023/02/18 11:50:13;;;;;;;8.53;2.80;;;20.90;83.70;;;;;;5078970;28;20455;-60
2023/02/18 11:52:42;;;;;;;2.17;1.57;;;20.90;83.70;;;;;;5085127;28;20531;-56
2023/02/18 11:55:16;;;;;;;2.10;1.40;;;20.90;83.70;;;;;;5074479;28;20460;-53
2023/02/18 11:57:47;;;;;;;1.23;1.13;;;20.90;83.70;;;;;;5081497;28;20455;-53
2023/02/18 12:00:21;;;;;;;2.30;1.30;;;20.90;83.70;;;;;;5072909;28;20441;-56
2023/02/18 12:02:51;;;;;;;1.50;1.40;;;20.90;83.70;;;;;;5075950;28;20457;-60
2023/02/18 12:05:22;;;;;;;2.10;1.70;;;20.90;83.60;;;;;;5082710;28;20468;-60
2023/02/18 12:07:52;;;;;;;2.43;1.27;;;20.90;83.50;;;;;;5073541;28;20481;-63
2023/02/18 12:10:26;;;;;;;1.90;1.47;;;20.90;83.60;;;;;;5071965;28;20456;-61
2023/02/18 12:12:58;;;;;;;1.20;1.07;;;20.90;83.70;;;;;;5076990;28;20546;-62
2023/02/18 12:15:32;;;;;;;1.37;1.10;;;20.90;83.60;;;;;;5080423;28;20499;-61
2023/02/18 12:18:52;;;;;;;1.63;1.30;;;20.90;83.70;;;;;;5082857;28;20464;-61
2023/02/18 12:21:32;;;;;;;2.50;1.20;;;20.90;83.60;;;;;;5015879;28;20481;-60
2023/02/18 12:24:13;;;;;;;3.33;1.20;;;20.90;83.70;;;;;;5017763;28;20478;-61
2023/02/18 12:26:48;;;;;;;2.03;1.20;;;20.90;83.70;;;;;;5064407;28;20456;-61
2023/02/18 12:29:40;;;;;;;1.53;1.30;;;20.90;83.70;;;;;;5083421;28;20854;-60
2023/02/18 12:32:20;;;;;;;1.37;1.27;;;20.90;83.70;;;;;;5073121;28;20467;-62
2023/02/18 12:35:03;;;;;;;1.30;1.20;;;21.00;83.80;;;;;;5090140;28;20470;-61
2023/02/18 12:38:02;;;;;;;1.10;0.97;;;21.00;83.80;;;;;;5085222;28;20537;-58
2023/02/18 12:40:53;;;;;;;1.23;1.00;;;21.00;83.80;;;;;;5069376;28;20956;-63
2023/02/18 12:43:32;;;;;;;2.33;1.30;;;21.00;83.80;;;;;;5069956;28;20980;-61
2023/02/18 12:46:30;;;;;;;2.00;1.47;;;21.10;84.00;;;;;;5076898;28;20982;-63
2023/02/18 12:49:26;;;;;;;2.20;1.43;;;21.10;83.90;;;;;;5071666;28;20458;-62
2023/02/18 12:52:09;;;;;;;1.50;1.30;;;21.10;83.80;;;;;;5075321;28;20976;-62
2023/02/18 12:54:51;;;;;;;1.40;1.30;;;21.10;83.70;;;;;;5070180;28;20469;-63
2023/02/18 12:57:31;;;;;;;1.30;1.10;;;21.10;83.60;;;;;;5080230;28;20700;-65
2023/02/18 13:00:20;;;;;;;1.93;1.50;;;21.20;83.70;;;;;;5080211;28;20452;-64
2023/02/18 13:03:16;;;;;;;1.13;0.97;;;21.10;83.60;;;;;;5078088;28;20476;-61
2023/02/18 13:05:54;;;;;;;1.60;1.20;;;21.10;84.50;;;;;;5094535;28;20796;-63